Time;durP1;ratioP1;P1;durP2;ratioP2;P2;SDS_P1;SDS_P2;PMS_P1;PMS_P2;Temp;Humidity;BMP_temperature;BMP_pressure;BME280_temperature;BME280_humidity;BME280_pressure;Samples;Min_cycle;Max_cycle;Signal;HPM_P1;HPM_P2
2022/03/19 00:02:12;;;;;;;116.97;44.40;;;;;;;;;;5061884;28;20025;-59
2022/03/19 00:04:37;;;;;;;134.50;49.20;;;;;;;;;;5055246;28;20165;-60
2022/03/19 00:07:03;;;;;;;137.20;48.08;;;;;;;;;;5060218;28;20781;-59
2022/03/19 00:09:28;;;;;;;138.18;49.28;;;;;;;;;;5056022;28;20442;-59
2022/03/19 00:11:54;;;;;;;137.00;49.70;;;;;;;;;;5060603;28;20031;-59
2022/03/19 00:14:20;;;;;;;135.57;49.45;;;;;;;;;;5053911;28;20471;-59
2022/03/19 00:16:46;;;;;;;133.55;48.10;;;;;;;;;;5058949;28;20043;-61
2022/03/19 00:19:11;;;;;;;139.98;49.30;;;;;;;;;;5053677;28;20103;-61
2022/03/19 00:21:38;;;;;;;140.90;50.78;;;;;;;;;;5054095;28;20060;-61
2022/03/19 00:24:05;;;;;;;143.73;50.90;;;;;;;;;;5051746;28;20481;-59
2022/03/19 00:26:30;;;;;;;141.70;51.63;;;;;;;;;;5052434;28;20039;-59
2022/03/19 00:28:56;;;;;;;143.82;51.88;;;;;;;;;;5058317;28;20539;-59
2022/03/19 00:31:21;;;;;;;139.43;50.70;;;;;;;;;;5052441;28;20519;-58
2022/03/19 00:33:47;;;;;;;143.30;50.53;;;;;;;;;;5052695;28;20119;-59
2022/03/19 00:36:12;;;;;;;143.48;51.90;;;;;;;;;;5048983;28;20818;-58
2022/03/19 00:38:38;;;;;;;134.55;50.67;;;;;;;;;;5057928;28;20111;-59
2022/03/19 00:41:03;;;;;;;139.02;51.25;;;;;;;;;;5056965;28;20029;-59
2022/03/19 00:43:29;;;;;;;144.70;52.67;;;;;;;;;;5059172;28;20147;-59
2022/03/19 00:45:55;;;;;;;143.60;50.83;;;;;;;;;;5057458;28;20074;-60
2022/03/19 00:48:20;;;;;;;151.23;52.90;;;;;;;;;;5067091;28;20024;-60
2022/03/19 00:50:46;;;;;;;144.38;50.58;;;;;;;;;;5066149;28;20578;-57
2022/03/19 00:53:11;;;;;;;139.45;49.75;;;;;;;;;;5066931;28;20081;-58
2022/03/19 00:55:37;;;;;;;139.50;50.67;;;;;;;;;;5068757;28;20384;-59
2022/03/19 00:58:02;;;;;;;136.98;51.13;;;;;;;;;;5062885;28;20033;-60
2022/03/19 01:00:28;;;;;;;143.65;51.88;;;;;;;;;;5065293;28;20037;-59
2022/03/19 01:02:56;;;;;;;127.72;47.47;;;;;;;;;;5057639;28;20112;-60
2022/03/19 01:05:23;;;;;;;139.80;48.92;;;;;;;;;;5060748;28;20028;-60
2022/03/19 01:07:51;;;;;;;130.88;48.38;;;;;;;;;;5063966;28;20024;-60
2022/03/19 01:10:26;;;;;;;133.85;49.03;;;;;;;;;;5063528;28;20436;-58
2022/03/19 01:12:53;;;;;;;137.25;48.10;;;;;;;;;;5056427;28;20480;-58
2022/03/19 01:15:19;;;;;;;133.80;49.00;;;;;;;;;;5060929;28;20035;-58
2022/03/19 01:17:45;;;;;;;127.63;48.78;;;;;;;;;;5060841;28;20028;-59
2022/03/19 01:20:12;;;;;;;130.50;47.42;;;;;;;;;;5060393;28;20032;-59
2022/03/19 01:22:41;;;;;;;132.88;47.60;;;;;;;;;;5056246;28;20166;-60
2022/03/19 01:25:07;;;;;;;124.50;47.83;;;;;;;;;;5055092;28;20017;-59
2022/03/19 01:27:33;;;;;;;119.82;46.17;;;;;;;;;;5054899;28;20024;-58
2022/03/19 01:29:59;;;;;;;128.85;45.75;;;;;;;;;;5053898;28;20036;-59
2022/03/19 01:32:25;;;;;;;127.22;48.00;;;;;;;;;;5057824;28;20036;-58
2022/03/19 01:34:50;;;;;;;127.60;46.08;;;;;;;;;;5062570;28;20036;-60
2022/03/19 01:37:15;;;;;;;131.98;47.65;;;;;;;;;;5058281;28;20032;-61
2022/03/19 01:39:41;;;;;;;130.32;47.08;;;;;;;;;;5059096;28;20029;-60
2022/03/19 01:42:07;;;;;;;120.68;44.40;;;;;;;;;;5054347;28;20025;-60
2022/03/19 01:44:33;;;;;;;131.82;46.30;;;;;;;;;;5068732;28;20458;-60
2022/03/19 01:47:10;;;;;;;128.77;46.63;;;;;;;;;;5068239;28;20146;-59
2022/03/19 01:49:37;;;;;;;131.65;47.00;;;;;;;;;;5063354;28;20036;-59
2022/03/19 01:52:03;;;;;;;127.22;46.17;;;;;;;;;;5067338;28;20031;-60
2022/03/19 01:54:32;;;;;;;130.43;45.53;;;;;;;;;;5058862;28;20036;-58
2022/03/19 01:56:59;;;;;;;117.23;44.47;;;;;;;;;;5064695;28;20459;-59
2022/03/19 01:59:28;;;;;;;115.75;44.65;;;;;;;;;;5063455;28;20297;-58
2022/03/19 02:01:55;;;;;;;115.60;43.63;;;;;;;;;;5063874;28;20020;-59
2022/03/19 02:04:21;;;;;;;117.55;44.80;;;;;;;;;;5057916;28;20611;-59
2022/03/19 02:06:47;;;;;;;115.40;44.08;;;;;;;;;;5065520;28;20107;-59
2022/03/19 02:09:13;;;;;;;119.47;42.55;;;;;;;;;;5062933;28;20387;-59
2022/03/19 02:11:39;;;;;;;115.90;44.00;;;;;;;;;;5061400;28;20025;-59
2022/03/19 02:14:04;;;;;;;125.18;45.65;;;;;;;;;;5056780;28;20049;-58
2022/03/19 02:16:30;;;;;;;127.60;44.33;;;;;;;;;;5059070;28;20036;-60
2022/03/19 02:19:00;;;;;;;115.13;42.88;;;;;;;;;;5056109;28;20104;-60
2022/03/19 02:21:25;;;;;;;119.40;44.47;;;;;;;;;;5056999;28;20420;-59
2022/03/19 02:26:44;;;;;;;114.78;43.05;;;;;;;;;;5055293;28;20043;-60
2022/03/19 02:29:09;;;;;;;119.60;44.47;;;;;;;;;;5051995;28;20582;-59
2022/03/19 02:31:40;;;;;;;118.65;44.60;;;;;;;;;;5051326;28;20111;-60
2022/03/19 02:34:08;;;;;;;112.15;42.22;;;;;;;;;;5054346;28;20028;-59
2022/03/19 02:36:35;;;;;;;113.60;42.33;;;;;;;;;;5059701;28;20085;-59
2022/03/19 02:39:34;;;;;;;110.18;41.33;;;;;;;;;;5052082;28;20598;-59
2022/03/19 02:42:05;;;;;;;109.75;41.78;;;;;;;;;;5055491;28;20044;-59
2022/03/19 02:44:31;;;;;;;104.82;40.28;;;;;;;;;;5060798;28;20070;-59
2022/03/19 02:47:00;;;;;;;107.95;40.90;;;;;;;;;;5064949;28;20473;-58
2022/03/19 02:49:26;;;;;;;112.40;42.43;;;;;;;;;;5059174;28;20444;-59
2022/03/19 02:51:53;;;;;;;103.78;40.58;;;;;;;;;;5062028;28;20132;-58
2022/03/19 02:54:24;;;;;;;101.22;38.50;;;;;;;;;;5064237;28;20688;-59
2022/03/19 02:56:51;;;;;;;111.53;42.20;;;;;;;;;;5066893;28;20084;-58
2022/03/19 02:59:20;;;;;;;103.70;42.03;;;;;;;;;;5061072;28;20032;-61
2022/03/19 03:02:07;;;;;;;116.80;41.55;;;;;;;;;;5061444;28;20028;-60
2022/03/19 03:04:33;;;;;;;103.97;39.47;;;;;;;;;;5062808;28;20040;-59
2022/03/19 03:07:03;;;;;;;103.63;39.88;;;;;;;;;;5062375;28;20024;-59
2022/03/19 03:09:29;;;;;;;108.72;41.35;;;;;;;;;;5055145;28;20021;-59
2022/03/19 03:11:55;;;;;;;112.03;41.95;;;;;;;;;;5056125;28;20024;-60
2022/03/19 03:14:21;;;;;;;95.93;38.00;;;;;;;;;;5051893;28;20447;-59
2022/03/19 03:16:48;;;;;;;109.90;39.45;;;;;;;;;;5055492;28;20170;-59
2022/03/19 03:19:15;;;;;;;91.72;38.05;;;;;;;;;;5052951;28;20373;-58
2022/03/19 03:21:40;;;;;;;102.72;39.67;;;;;;;;;;5051921;28;20032;-59
2022/03/19 03:24:09;;;;;;;105.22;39.70;;;;;;;;;;5052129;28;20033;-58
2022/03/19 03:26:36;;;;;;;104.23;39.57;;;;;;;;;;5052241;28;20025;-59
2022/03/19 03:29:02;;;;;;;106.18;40.28;;;;;;;;;;5052805;28;20298;-58
2022/03/19 03:31:27;;;;;;;102.10;40.67;;;;;;;;;;5053593;28;20055;-58
2022/03/19 03:33:54;;;;;;;103.93;40.85;;;;;;;;;;5058355;28;20475;-60
2022/03/19 03:36:20;;;;;;;99.40;39.08;;;;;;;;;;5057736;28;20032;-59
2022/03/19 03:38:46;;;;;;;99.47;40.00;;;;;;;;;;5060799;28;20028;-60
2022/03/19 03:41:11;;;;;;;104.78;38.28;;;;;;;;;;5054640;28;20021;-59
2022/03/19 03:43:37;;;;;;;102.65;39.08;;;;;;;;;;5059897;28;20040;-59
2022/03/19 03:46:03;;;;;;;106.47;40.03;;;;;;;;;;5061184;28;20016;-58
2022/03/19 03:48:28;;;;;;;109.45;40.30;;;;;;;;;;5062688;28;20114;-59
2022/03/19 03:50:55;;;;;;;104.93;40.40;;;;;;;;;;5060516;28;20087;-59
2022/03/19 03:53:23;;;;;;;103.05;38.55;;;;;;;;;;5064107;28;20407;-59
2022/03/19 03:55:49;;;;;;;102.65;39.35;;;;;;;;;;5061946;28;20035;-60
2022/03/19 03:58:14;;;;;;;109.10;40.90;;;;;;;;;;5061983;28;20025;-60
2022/03/19 04:00:40;;;;;;;106.78;40.67;;;;;;;;;;5062114;28;20511;-58
2022/03/19 04:03:05;;;;;;;100.53;40.03;;;;;;;;;;5060199;28;20020;-58
2022/03/19 04:05:33;;;;;;;103.68;39.88;;;;;;;;;;5058950;28;20096;-59
2022/03/19 04:07:59;;;;;;;97.00;38.22;;;;;;;;;;5053211;28;20024;-59
2022/03/19 04:10:25;;;;;;;101.60;38.78;;;;;;;;;;5055230;28;20017;-59
2022/03/19 04:12:50;;;;;;;105.13;40.17;;;;;;;;;;5057954;28;20640;-60
2022/03/19 04:15:18;;;;;;;97.32;38.28;;;;;;;;;;5055675;28;20151;-61
2022/03/19 04:17:44;;;;;;;98.72;36.92;;;;;;;;;;5054187;28;20044;-62
2022/03/19 04:20:10;;;;;;;103.80;38.60;;;;;;;;;;5051259;28;20033;-60
2022/03/19 04:22:44;;;;;;;96.43;37.00;;;;;;;;;;5051145;28;20025;-58
2022/03/19 04:25:20;;;;;;;99.47;38.72;;;;;;;;;;5058016;28;20044;-58
2022/03/19 04:27:48;;;;;;;97.35;37.67;;;;;;;;;;5050011;28;20032;-58
2022/03/19 04:30:14;;;;;;;101.60;40.08;;;;;;;;;;5050073;28;20020;-59
2022/03/19 04:33:06;;;;;;;104.20;41.50;;;;;;;;;;5058544;28;20044;-58
2022/03/19 04:38:21;;;;;;;97.22;37.92;;;;;;;;;;5056250;28;20047;-59
2022/03/19 04:40:49;;;;;;;103.93;39.78;;;;;;;;;;5055952;28;20020;-57
2022/03/19 04:43:14;;;;;;;100.43;38.60;;;;;;;;;;5055858;28;20033;-58
2022/03/19 04:45:41;;;;;;;101.20;38.60;;;;;;;;;;5059482;28;20033;-58
2022/03/19 04:48:08;;;;;;;102.55;38.25;;;;;;;;;;5064717;28;20495;-57
2022/03/19 04:50:37;;;;;;;102.65;37.75;;;;;;;;;;5053642;28;20040;-59
2022/03/19 04:53:04;;;;;;;89.10;35.85;;;;;;;;;;5059099;28;20025;-58
2022/03/19 04:55:29;;;;;;;96.20;36.53;;;;;;;;;;5057450;28;20043;-60
2022/03/19 04:57:54;;;;;;;95.78;37.92;;;;;;;;;;5063765;28;20123;-59
2022/03/19 05:00:20;;;;;;;94.75;37.17;;;;;;;;;;5058163;28;20098;-59
2022/03/19 05:02:45;;;;;;;101.40;37.50;;;;;;;;;;5062593;28;20099;-59
2022/03/19 05:05:12;;;;;;;96.45;38.10;;;;;;;;;;5056222;28;20025;-59
2022/03/19 05:07:39;;;;;;;101.82;37.58;;;;;;;;;;5059221;28;20438;-57
2022/03/19 05:12:51;;;;;;;104.07;38.28;;;;;;;;;;5056227;28;20117;-58
2022/03/19 05:15:17;;;;;;;100.53;38.65;;;;;;;;;;5056179;28;20064;-58
2022/03/19 05:17:44;;;;;;;102.78;38.50;;;;;;;;;;5060801;28;20110;-58
2022/03/19 05:20:11;;;;;;;111.13;39.50;;;;;;;;;;5051091;28;20031;-58
2022/03/19 05:22:37;;;;;;;111.47;41.58;;;;;;;;;;5049723;28;20032;-60
2022/03/19 05:25:03;;;;;;;103.68;38.13;;;;;;;;;;5054473;28;20028;-60
2022/03/19 05:27:29;;;;;;;101.70;38.33;;;;;;;;;;5059311;28;20099;-60
2022/03/19 05:29:55;;;;;;;101.45;38.00;;;;;;;;;;5063373;28;20116;-59
2022/03/19 05:32:21;;;;;;;98.70;38.78;;;;;;;;;;5057100;28;20028;-59
2022/03/19 05:34:48;;;;;;;100.53;38.78;;;;;;;;;;5061849;28;20036;-60
2022/03/19 05:37:14;;;;;;;109.65;39.85;;;;;;;;;;5059144;28;20033;-60
2022/03/19 05:39:40;;;;;;;108.43;41.95;;;;;;;;;;5059970;28;20479;-59
2022/03/19 05:42:06;;;;;;;115.00;41.08;;;;;;;;;;5055407;28;20017;-59
2022/03/19 05:44:32;;;;;;;111.95;42.22;;;;;;;;;;5064730;28;20102;-59
2022/03/19 05:46:58;;;;;;;117.93;42.58;;;;;;;;;;5061104;28;20039;-59
2022/03/19 05:49:24;;;;;;;117.32;41.17;;;;;;;;;;5060086;28;20024;-60
2022/03/19 05:51:50;;;;;;;113.45;40.42;;;;;;;;;;5065879;28;20424;-60
2022/03/19 05:54:15;;;;;;;111.53;39.70;;;;;;;;;;5066544;28;20060;-60
2022/03/19 05:56:40;;;;;;;106.80;38.92;;;;;;;;;;5063912;28;20035;-60
2022/03/19 05:59:06;;;;;;;95.13;36.47;;;;;;;;;;5058192;28;20032;-61
2022/03/19 06:01:32;;;;;;;95.70;35.97;;;;;;;;;;5067964;28;20029;-59
2022/03/19 06:03:59;;;;;;;98.60;36.22;;;;;;;;;;5056614;28;21031;-59
2022/03/19 06:06:25;;;;;;;109.35;39.33;;;;;;;;;;5059651;28;20117;-59
2022/03/19 06:08:51;;;;;;;96.75;33.33;;;;;;;;;;5067652;28;20052;-59
2022/03/19 06:11:16;;;;;;;91.70;35.42;;;;;;;;;;5055468;28;20079;-60
2022/03/19 06:13:43;;;;;;;89.03;33.13;;;;;;;;;;5057198;28;20601;-59
2022/03/19 06:16:09;;;;;;;85.35;33.55;;;;;;;;;;5065753;28;20024;-59
2022/03/19 06:18:34;;;;;;;89.22;34.85;;;;;;;;;;5062460;28;20407;-59
2022/03/19 06:21:00;;;;;;;83.07;32.80;;;;;;;;;;5055115;28;20029;-59
2022/03/19 06:23:26;;;;;;;85.50;34.08;;;;;;;;;;5059451;28;20107;-59
2022/03/19 06:25:52;;;;;;;85.25;31.63;;;;;;;;;;5055217;28;20028;-59
2022/03/19 06:28:18;;;;;;;92.20;36.90;;;;;;;;;;5054161;28;20403;-60
2022/03/19 06:30:44;;;;;;;104.53;38.10;;;;;;;;;;5056265;28;20488;-59
2022/03/19 06:33:11;;;;;;;108.20;39.95;;;;;;;;;;5061793;28;20605;-59
2022/03/19 06:38:25;;;;;;;103.38;38.60;;;;;;;;;;5062122;28;20085;-59
2022/03/19 06:40:50;;;;;;;87.68;35.95;;;;;;;;;;5061378;28;20505;-59
2022/03/19 06:43:16;;;;;;;99.57;37.35;;;;;;;;;;5058881;28;20103;-60
2022/03/19 06:45:42;;;;;;;88.70;35.28;;;;;;;;;;5058792;28;20079;-58
2022/03/19 06:48:07;;;;;;;87.95;34.28;;;;;;;;;;5061454;28;20035;-60
2022/03/19 06:50:33;;;;;;;87.28;34.60;;;;;;;;;;5055945;28;20029;-60
2022/03/19 06:52:58;;;;;;;95.45;36.55;;;;;;;;;;5060479;28;20097;-60
2022/03/19 06:55:24;;;;;;;102.50;39.00;;;;;;;;;;5060843;28;20877;-60
2022/03/19 06:57:49;;;;;;;91.57;36.08;;;;;;;;;;5063075;28;20122;-60
2022/03/19 07:00:15;;;;;;;103.43;37.90;;;;;;;;;;5058995;28;20027;-59
2022/03/19 07:02:47;;;;;;;92.32;35.78;;;;;;;;;;5056971;28;20102;-60
2022/03/19 07:05:23;;;;;;;93.93;35.92;;;;;;;;;;5054703;28;20021;-59
2022/03/19 07:07:49;;;;;;;98.32;37.22;;;;;;;;;;5058970;28;20031;-60
2022/03/19 07:10:18;;;;;;;95.40;36.13;;;;;;;;;;5055926;28;20021;-59
2022/03/19 07:12:44;;;;;;;102.18;36.78;;;;;;;;;;5055519;28;20032;-59
2022/03/19 07:15:17;;;;;;;83.95;35.20;;;;;;;;;;5053503;28;20043;-60
2022/03/19 07:17:43;;;;;;;89.97;35.38;;;;;;;;;;5059590;28;20335;-61
2022/03/19 07:20:11;;;;;;;98.57;36.10;;;;;;;;;;5058968;28;20566;-60
2022/03/19 07:22:55;;;;;;;87.57;34.33;;;;;;;;;;5053202;28;20021;-60
2022/03/19 07:25:24;;;;;;;89.97;35.13;;;;;;;;;;5051003;28;20060;-60
2022/03/19 07:27:51;;;;;;;91.95;36.08;;;;;;;;;;5055939;28;20470;-60
2022/03/19 07:30:17;;;;;;;93.18;35.38;;;;;;;;;;5059250;28;20037;-60
2022/03/19 07:32:43;;;;;;;89.45;33.63;;;;;;;;;;5062691;28;20025;-60
2022/03/19 07:35:10;;;;;;;89.38;34.58;;;;;;;;;;5062591;28;20535;-60
2022/03/19 07:37:37;;;;;;;88.10;34.28;;;;;;;;;;5059790;28;20119;-59
2022/03/19 07:40:04;;;;;;;87.30;34.78;;;;;;;;;;5060712;28;20054;-61
2022/03/19 07:42:29;;;;;;;94.57;37.40;;;;;;;;;;5059363;28;20020;-60
2022/03/19 07:44:55;;;;;;;101.88;39.40;;;;;;;;;;5064211;28;20097;-60
2022/03/19 07:47:20;;;;;;;92.47;36.00;;;;;;;;;;5062824;28;20035;-59
2022/03/19 07:49:46;;;;;;;97.85;37.35;;;;;;;;;;5063545;28;20555;-60
2022/03/19 07:52:12;;;;;;;98.10;36.60;;;;;;;;;;5064759;28;20032;-60
2022/03/19 07:54:38;;;;;;;101.18;38.15;;;;;;;;;;5060617;28;20127;-60
2022/03/19 07:57:11;;;;;;;103.78;38.88;;;;;;;;;;5061096;28;20027;-60
2022/03/19 07:59:37;;;;;;;89.32;36.55;;;;;;;;;;5059231;28;20033;-60
2022/03/19 08:02:03;;;;;;;92.80;36.95;;;;;;;;;;5056818;28;20220;-60
2022/03/19 08:04:29;;;;;;;89.85;37.88;;;;;;;;;;5059663;28;20032;-61
2022/03/19 08:06:55;;;;;;;88.18;36.75;;;;;;;;;;5059451;28;20502;-59
2022/03/19 08:09:22;;;;;;;94.40;36.15;;;;;;;;;;5061640;28;20028;-59
2022/03/19 08:11:49;;;;;;;88.20;35.88;;;;;;;;;;5056504;28;20033;-60
2022/03/19 08:14:15;;;;;;;87.35;36.85;;;;;;;;;;5059599;28;20480;-58
2022/03/19 08:16:42;;;;;;;90.72;36.95;;;;;;;;;;5051460;28;20395;-58
2022/03/19 08:19:11;;;;;;;84.57;36.08;;;;;;;;;;5057980;28;20024;-58
2022/03/19 08:21:36;;;;;;;84.60;35.90;;;;;;;;;;5052722;28;20028;-58
2022/03/19 08:24:02;;;;;;;85.45;29.45;;;;;;;;;;5053622;28;20021;-53
2022/03/19 08:26:27;;;;;;;112.60;28.85;;;;;;;;;;5057306;28;20406;-57
2022/03/19 08:28:53;;;;;;;72.63;29.42;;;;;;;;;;5052091;28;20075;-57
2022/03/19 08:31:18;;;;;;;80.18;30.98;;;;;;;;;;5052404;28;20155;-57
2022/03/19 08:33:44;;;;;;;71.65;28.27;;;;;;;;;;5052879;28;20028;-60
2022/03/19 08:36:09;;;;;;;77.88;31.17;;;;;;;;;;5061980;28;20108;-58
2022/03/19 08:41:19;;;;;;;64.75;29.00;;;;;;;;;;5060721;28;20542;-58
2022/03/19 08:43:44;;;;;;;65.50;29.52;;;;;;;;;;5056508;28;20055;-57
2022/03/19 08:46:11;;;;;;;70.90;30.90;;;;;;;;;;5058569;28;20036;-57
2022/03/19 08:48:36;;;;;;;61.38;28.92;;;;;;;;;;5059626;28;20078;-57
2022/03/19 08:53:48;;;;;;;59.42;27.65;;;;;;;;;;5058610;28;20056;-58
2022/03/19 08:56:13;;;;;;;59.15;27.75;;;;;;;;;;5058750;28;20547;-57
2022/03/19 08:58:39;;;;;;;62.60;28.55;;;;;;;;;;5055483;28;20108;-58
2022/03/19 09:01:04;;;;;;;54.70;26.00;;;;;;;;;;5056228;28;20033;-58
2022/03/19 09:03:30;;;;;;;55.40;26.40;;;;;;;;;;5067443;28;20074;-58
2022/03/19 09:05:55;;;;;;;55.95;26.20;;;;;;;;;;5065414;28;20026;-58
2022/03/19 09:08:22;;;;;;;49.47;24.58;;;;;;;;;;5065384;28;20059;-58
2022/03/19 09:10:47;;;;;;;54.28;25.25;;;;;;;;;;5059249;28;20082;-57
2022/03/19 09:13:13;;;;;;;52.17;26.15;;;;;;;;;;5057499;28;20037;-58
2022/03/19 09:15:39;;;;;;;56.00;26.63;;;;;;;;;;5055858;28;20098;-60
2022/03/19 09:18:05;;;;;;;53.67;26.83;;;;;;;;;;5052933;28;20029;-59
2022/03/19 09:20:31;;;;;;;58.53;28.65;;;;;;;;;;5060965;28;20036;-61
2022/03/19 09:22:57;;;;;;;52.38;26.77;;;;;;;;;;5057921;28;20029;-59
2022/03/19 09:25:22;;;;;;;57.67;27.00;;;;;;;;;;5060373;28;20070;-59
2022/03/19 09:27:49;;;;;;;47.28;24.58;;;;;;;;;;5062473;28;20053;-58
2022/03/19 09:30:14;;;;;;;57.95;29.15;;;;;;;;;;5062421;28;20025;-60
2022/03/19 09:32:40;;;;;;;48.65;24.98;;;;;;;;;;5058705;28;20031;-59
2022/03/19 09:35:06;;;;;;;52.78;25.77;;;;;;;;;;5061897;28;20055;-57
2022/03/19 09:37:31;;;;;;;50.90;25.73;;;;;;;;;;5062299;28;20159;-57
2022/03/19 09:39:58;;;;;;;52.90;25.90;;;;;;;;;;5064519;28;20104;-57
2022/03/19 09:42:26;;;;;;;50.92;26.73;;;;;;;;;;5060407;28;20499;-57
2022/03/19 09:44:52;;;;;;;58.00;27.98;;;;;;;;;;5061902;28;20028;-60
2022/03/19 09:47:18;;;;;;;53.10;28.35;;;;;;;;;;5055958;28;20083;-60
2022/03/19 09:49:43;;;;;;;60.67;28.60;;;;;;;;;;5059448;28;20080;-60
2022/03/19 09:52:11;;;;;;;54.75;28.05;;;;;;;;;;5062691;28;20426;-60
2022/03/19 09:54:36;;;;;;;54.70;27.08;;;;;;;;;;5059728;28;20428;-60
2022/03/19 09:57:02;;;;;;;54.28;27.05;;;;;;;;;;5053448;28;20112;-60
2022/03/19 09:59:28;;;;;;;54.70;28.15;;;;;;;;;;5056062;28;20137;-60
2022/03/19 10:01:53;;;;;;;56.83;28.42;;;;;;;;;;5055756;28;20445;-60
2022/03/19 10:04:20;;;;;;;56.92;27.25;;;;;;;;;;5055336;28;20032;-60
2022/03/19 10:09:45;;;;;;;56.70;27.83;;;;;;;;;;5060456;28;20106;-59
2022/03/19 10:12:18;;;;;;;53.83;26.95;;;;;;;;;;5051583;28;20029;-59
2022/03/19 10:14:48;;;;;;;57.17;27.67;;;;;;;;;;5053070;28;20057;-59
2022/03/19 10:17:31;;;;;;;62.00;28.70;;;;;;;;;;5053973;28;20036;-59
2022/03/19 10:20:05;;;;;;;55.30;27.63;;;;;;;;;;5057211;28;20040;-59
2022/03/19 10:22:31;;;;;;;54.85;27.75;;;;;;;;;;5051420;28;20021;-60
2022/03/19 10:25:00;;;;;;;53.05;27.63;;;;;;;;;;5059058;28;20227;-60
2022/03/19 10:27:30;;;;;;;59.08;28.08;;;;;;;;;;5058539;28;20044;-59
2022/03/19 10:30:11;;;;;;;60.78;29.00;;;;;;;;;;5058238;28;20032;-60
2022/03/19 10:32:41;;;;;;;56.90;29.40;;;;;;;;;;5053655;28;20127;-60
2022/03/19 10:35:28;;;;;;;60.08;30.02;;;;;;;;;;5061189;28;20033;-60
2022/03/19 10:37:54;;;;;;;56.83;28.33;;;;;;;;;;5041957;28;20039;-60
2022/03/19 10:40:20;;;;;;;55.10;28.25;;;;;;;;;;5061800;28;20452;-61
2022/03/19 10:42:46;;;;;;;60.92;29.90;;;;;;;;;;5064089;28;20024;-60
2022/03/19 10:45:20;;;;;;;53.90;28.40;;;;;;;;;;5058827;28;20480;-60
2022/03/19 10:47:47;;;;;;;58.55;30.48;;;;;;;;;;5064363;28;20063;-61
2022/03/19 10:50:23;;;;;;;58.55;30.65;;;;;;;;;;5061139;28;20091;-59
2022/03/19 10:52:50;;;;;;;63.35;32.20;;;;;;;;;;5063403;28;20090;-61
2022/03/19 10:55:16;;;;;;;62.35;31.13;;;;;;;;;;5063686;28;20514;-61
2022/03/19 10:57:43;;;;;;;62.72;33.30;;;;;;;;;;5054017;28;20025;-60
2022/03/19 11:00:09;;;;;;;68.88;34.15;;;;;;;;;;5059576;28;20024;-59
2022/03/19 11:02:40;;;;;;;72.35;37.22;;;;;;;;;;5058307;28;20044;-60
2022/03/19 11:05:07;;;;;;;65.45;34.63;;;;;;;;;;5054940;28;20441;-60
2022/03/19 11:07:35;;;;;;;64.70;33.67;;;;;;;;;;5059893;28;20031;-60
2022/03/19 11:10:04;;;;;;;61.75;33.38;;;;;;;;;;5059374;28;20040;-60
2022/03/19 11:12:33;;;;;;;64.32;30.65;;;;;;;;;;5055517;28;20028;-60
2022/03/19 11:15:03;;;;;;;69.47;34.80;;;;;;;;;;5057074;28;20070;-61
2022/03/19 11:17:36;;;;;;;64.90;33.45;;;;;;;;;;5060066;28;20109;-60
2022/03/19 11:20:19;;;;;;;61.92;32.88;;;;;;;;;;5063115;28;20057;-61
2022/03/19 11:22:50;;;;;;;64.93;34.25;;;;;;;;;;5060918;28;20105;-59
2022/03/19 11:25:27;;;;;;;52.97;27.15;;;;;;;;;;5057140;28;20036;-57
2022/03/19 11:28:01;;;;;;;58.10;30.67;;;;;;;;;;5053490;28;20087;-57
2022/03/19 11:30:28;;;;;;;61.45;30.75;;;;;;;;;;5058843;28;20547;-59
2022/03/19 11:33:08;;;;;;;60.30;29.52;;;;;;;;;;5059806;28;20028;-59
2022/03/19 11:35:40;;;;;;;58.75;30.17;;;;;;;;;;5059473;28;20025;-57
2022/03/19 11:38:11;;;;;;;56.15;29.50;;;;;;;;;;5061971;28;20024;-59
2022/03/19 11:40:38;;;;;;;54.00;29.48;;;;;;;;;;5054863;28;20380;-58
2022/03/19 11:43:07;;;;;;;60.50;34.20;;;;;;;;;;5055140;28;20365;-59
2022/03/19 11:46:03;;;;;;;59.28;32.83;;;;;;;;;;5058833;28;20052;-58
2022/03/19 11:48:37;;;;;;;52.97;29.50;;;;;;;;;;5060488;28;20037;-57
2022/03/19 11:51:37;;;;;;;54.38;30.30;;;;;;;;;;5065663;28;20123;-58
2022/03/19 11:54:17;;;;;;;53.55;28.85;;;;;;;;;;5056518;28;20503;-58
2022/03/19 11:56:42;;;;;;;56.00;27.88;;;;;;;;;;5060098;28;20037;-58
2022/03/19 11:59:16;;;;;;;56.35;29.00;;;;;;;;;;5056844;28;20081;-58
2022/03/19 12:01:58;;;;;;;48.72;26.35;;;;;;;;;;5055718;28;20100;-58
2022/03/19 12:04:24;;;;;;;45.60;24.55;;;;;;;;;;5055242;28;20178;-58
2022/03/19 12:06:59;;;;;;;47.15;23.70;;;;;;;;;;5064571;28;20099;-57
2022/03/19 12:09:50;;;;;;;44.83;24.23;;;;;;;;;;5060579;28;20027;-57
2022/03/19 12:12:16;;;;;;;40.97;21.55;;;;;;;;;;5055725;28;20248;-60
2022/03/19 12:14:42;;;;;;;38.58;20.00;;;;;;;;;;5059298;28;20420;-59
2022/03/19 12:17:17;;;;;;;39.90;21.90;;;;;;;;;;5052943;28;20083;-58
2022/03/19 12:19:58;;;;;;;45.22;21.80;;;;;;;;;;5049469;28;20137;-58
2022/03/19 12:22:39;;;;;;;45.53;24.02;;;;;;;;;;5052449;28;20044;-58
2022/03/19 12:25:08;;;;;;;44.33;23.42;;;;;;;;;;5059567;28;20055;-58
2022/03/19 12:27:34;;;;;;;41.88;21.77;;;;;;;;;;5053285;28;20053;-58
2022/03/19 12:30:00;;;;;;;33.15;18.83;;;;;;;;;;5060175;28;20024;-59
2022/03/19 12:32:26;;;;;;;35.53;19.13;;;;;;;;;;5054641;28;20029;-58
2022/03/19 12:35:02;;;;;;;36.70;18.55;;;;;;;;;;5056495;28;20499;-58
2022/03/19 12:37:28;;;;;;;33.15;17.17;;;;;;;;;;5055418;28;20020;-58
2022/03/19 12:40:00;;;;;;;37.13;20.73;;;;;;;;;;5068101;28;20036;-60
2022/03/19 12:42:31;;;;;;;37.28;21.40;;;;;;;;;;5067993;28;20035;-60
2022/03/19 12:44:59;;;;;;;42.10;21.45;;;;;;;;;;5062046;28;20089;-60
2022/03/19 12:47:25;;;;;;;40.13;21.38;;;;;;;;;;5062966;28;20082;-60
2022/03/19 12:49:52;;;;;;;41.47;21.83;;;;;;;;;;5067283;28;20494;-60
2022/03/19 12:52:17;;;;;;;39.63;20.60;;;;;;;;;;5058496;28;20409;-60
2022/03/19 12:54:45;;;;;;;40.30;20.70;;;;;;;;;;5068251;28;20058;-60
2022/03/19 12:57:13;;;;;;;37.40;20.48;;;;;;;;;;5066421;28;20039;-60
2022/03/19 12:59:51;;;;;;;35.40;19.20;;;;;;;;;;5062791;28;20033;-58
2022/03/19 13:02:17;;;;;;;35.90;19.40;;;;;;;;;;5060825;28;20140;-60
2022/03/19 13:04:44;;;;;;;38.28;19.75;;;;;;;;;;5062058;28;20032;-60
2022/03/19 13:07:12;;;;;;;35.95;19.08;;;;;;;;;;5063291;28;20021;-62
2022/03/19 13:09:39;;;;;;;34.10;18.42;;;;;;;;;;5064866;28;20056;-60
2022/03/19 13:12:14;;;;;;;34.42;18.50;;;;;;;;;;5060818;28;20035;-61
2022/03/19 13:14:47;;;;;;;37.15;19.02;;;;;;;;;;5064014;28;20134;-60
2022/03/19 13:17:15;;;;;;;31.10;16.88;;;;;;;;;;5054289;28;20032;-61
2022/03/19 13:19:40;;;;;;;34.33;17.45;;;;;;;;;;5062758;28;20035;-60
2022/03/19 13:22:08;;;;;;;31.58;17.48;;;;;;;;;;5064214;28;20112;-60
2022/03/19 13:24:36;;;;;;;30.23;16.25;;;;;;;;;;5057789;28;20028;-61
2022/03/19 13:27:03;;;;;;;28.42;15.90;;;;;;;;;;5056310;28;20024;-60
2022/03/19 13:29:33;;;;;;;31.90;17.15;;;;;;;;;;5058319;28;20447;-60
2022/03/19 13:32:01;;;;;;;35.80;19.65;;;;;;;;;;5068021;28;20066;-60
2022/03/19 13:34:29;;;;;;;33.60;17.23;;;;;;;;;;5062055;28;20388;-60
2022/03/19 13:37:01;;;;;;;33.35;19.00;;;;;;;;;;5067804;28;20036;-60
2022/03/19 13:39:41;;;;;;;34.90;17.48;;;;;;;;;;5062627;28;20520;-60
2022/03/19 13:42:08;;;;;;;29.80;14.80;;;;;;;;;;5065160;28;20031;-60
2022/03/19 13:44:36;;;;;;;29.55;15.20;;;;;;;;;;5065250;28;20056;-61
2022/03/19 13:47:11;;;;;;;27.13;14.30;;;;;;;;;;5064453;28;20020;-60
2022/03/19 13:49:55;;;;;;;25.75;14.40;;;;;;;;;;5061940;28;20024;-60
2022/03/19 13:52:40;;;;;;;28.27;14.05;;;;;;;;;;5065738;28;20439;-60
2022/03/19 13:55:11;;;;;;;24.92;13.60;;;;;;;;;;5054667;28;20017;-59
2022/03/19 13:57:36;;;;;;;27.17;13.43;;;;;;;;;;5055474;28;20410;-59
2022/03/19 14:00:10;;;;;;;47.90;13.88;;;;;;;;;;5057929;28;20108;-59
2022/03/19 14:02:37;;;;;;;28.92;12.80;;;;;;;;;;5059839;28;20035;-59
2022/03/19 14:05:04;;;;;;;23.90;12.85;;;;;;;;;;5063941;28;20020;-59
2022/03/19 14:07:35;;;;;;;26.45;13.10;;;;;;;;;;5063427;28;20025;-59
2022/03/19 14:10:01;;;;;;;25.10;12.82;;;;;;;;;;5057279;28;20388;-59
2022/03/19 14:12:37;;;;;;;25.45;12.23;;;;;;;;;;5056174;28;20025;-58
2022/03/19 14:15:05;;;;;;;26.63;12.32;;;;;;;;;;5053232;28;20044;-58
2022/03/19 14:17:52;;;;;;;26.08;13.07;;;;;;;;;;5051410;28;20025;-58
2022/03/19 14:20:20;;;;;;;24.75;12.88;;;;;;;;;;5058233;28;20629;-58
2022/03/19 14:22:50;;;;;;;22.95;12.05;;;;;;;;;;5055496;28;20032;-58
2022/03/19 14:25:16;;;;;;;22.30;11.18;;;;;;;;;;5058635;28;20097;-58
2022/03/19 14:27:42;;;;;;;17.75;10.93;;;;;;;;;;5052416;28;20463;-58
2022/03/19 14:30:09;;;;;;;22.10;11.55;;;;;;;;;;5052282;28;20028;-58
2022/03/19 14:32:34;;;;;;;25.10;11.80;;;;;;;;;;5051109;28;20059;-58
2022/03/19 14:35:00;;;;;;;22.17;11.65;;;;;;;;;;5057099;28;20060;-58
2022/03/19 14:37:26;;;;;;;19.92;10.95;;;;;;;;;;5063497;28;20032;-59